createdAt,value
2019-03-28T00:04:48.942Z,14.30
2019-03-28T00:14:56.560Z,13.33
2019-03-28T00:25:08.594Z,13.63
2019-03-28T00:35:15.061Z,14.07
2019-03-28T00:45:20.554Z,13.67
2019-03-28T00:55:28.778Z,13.77
2019-03-28T01:05:36.485Z,13.87
2019-03-28T01:15:42.586Z,15.10
2019-03-28T01:25:51.692Z,14.37
2019-03-28T01:36:04.242Z,15.23
2019-03-28T01:46:09.850Z,15.13
2019-03-28T01:56:15.612Z,15.03
2019-03-28T02:06:23.281Z,16.27
2019-03-28T02:16:31.316Z,15.57
2019-03-28T02:26:38.006Z,15.83
2019-03-28T02:36:44.113Z,16.70
2019-03-28T02:46:54.737Z,17.67
2019-03-28T02:57:03.643Z,18.53
2019-03-28T03:07:12.780Z,18.63
2019-03-28T03:17:18.538Z,18.60
2019-03-28T03:27:24.588Z,18.90
2019-03-28T03:37:33.338Z,18.17
2019-03-28T03:47:39.667Z,18.57
2019-03-28T03:57:48.494Z,18.60
2019-03-28T04:07:55.550Z,17.57
2019-03-28T04:18:06.206Z,19.03
2019-03-28T04:28:12.635Z,18.03
2019-03-28T04:38:24.552Z,18.73
2019-03-28T04:48:30.244Z,18.63
2019-03-28T04:58:44.234Z,17.87
2019-03-28T05:08:53.223Z,18.47
2019-03-28T05:19:03.166Z,17.43
2019-03-28T05:29:12.162Z,17.53
2019-03-28T05:39:22.927Z,17.97
2019-03-28T05:49:30.681Z,17.43
2019-03-28T05:59:38.903Z,17.60
2019-03-28T06:09:48.317Z,15.60
2019-03-28T06:19:55.631Z,13.63
2019-03-28T06:30:05.910Z,15.20
2019-03-28T06:40:12.290Z,11.40
2019-03-28T06:50:19.240Z,12.57
2019-03-28T07:00:28.795Z,11.53
2019-03-28T07:10:35.300Z,11.27
2019-03-28T07:20:40.426Z,11.90
2019-03-28T07:30:46.969Z,21.77
2019-03-28T07:40:54.134Z,24.07
2019-03-28T07:50:59.792Z,20.47
2019-03-28T08:01:07.272Z,26.60
2019-03-28T08:11:13.607Z,20.93
2019-03-28T08:21:19.594Z,15.07
2019-03-28T08:31:28.213Z,12.67
2019-03-28T08:41:42.878Z,11.93
2019-03-28T08:51:54.203Z,8.43
2019-03-28T09:02:12.222Z,10.70
2019-03-28T09:12:35.404Z,8.40
2019-03-28T09:22:43.311Z,12.00
2019-03-28T09:32:50.347Z,13.33
2019-03-28T09:42:55.642Z,6.80
2019-03-28T09:53:06.939Z,5.63
2019-03-28T10:03:12.988Z,10.20
2019-03-28T10:13:19.391Z,9.53
2019-03-28T10:23:27.603Z,10.63
2019-03-28T10:33:39.096Z,9.13
2019-03-28T10:43:47.697Z,9.73
2019-03-28T10:53:53.904Z,9.80
2019-03-28T11:03:58.967Z,10.93
2019-03-28T11:14:16.530Z,9.00
2019-03-28T11:24:21.891Z,10.50
2019-03-28T11:34:26.957Z,9.33
2019-03-28T11:44:33.718Z,11.13
2019-03-28T11:54:45.822Z,11.17
2019-03-28T12:04:57.217Z,9.10
2019-03-28T12:15:03.605Z,7.63
2019-03-28T12:25:10.882Z,9.47
2019-03-28T12:35:17.029Z,7.73
2019-03-28T12:45:24.629Z,8.90
2019-03-28T12:55:30.643Z,7.87
2019-03-28T13:05:36.545Z,7.20
2019-03-28T13:15:45.368Z,7.43
2019-03-28T13:25:56.839Z,5.73
2019-03-28T13:36:04.685Z,4.47
2019-03-28T13:46:12.426Z,3.50
2019-03-28T13:56:18.409Z,3.57
2019-03-28T14:06:26.768Z,4.00
2019-03-28T14:16:35.023Z,2.83
2019-03-28T14:27:01.616Z,3.00
2019-03-28T14:37:09.824Z,3.67
2019-03-28T14:47:16.918Z,3.30
2019-03-28T14:57:22.688Z,3.27
2019-03-28T15:07:30.275Z,3.03
2019-03-28T15:17:36.079Z,3.27
2019-03-28T15:27:45.954Z,3.70
2019-03-28T15:37:55.871Z,3.97
2019-03-28T15:48:03.355Z,3.53
2019-03-28T15:58:22.454Z,4.17
2019-03-28T16:08:39.412Z,4.50
2019-03-28T16:18:46.281Z,5.40
2019-03-28T16:28:56.374Z,6.03
2019-03-28T16:39:02.000Z,5.73
2019-03-28T16:49:10.395Z,6.47
2019-03-28T16:59:17.847Z,6.53
2019-03-28T17:09:24.373Z,6.93
2019-03-28T17:19:29.941Z,7.70
2019-03-28T17:29:34.917Z,8.03
2019-03-28T17:39:39.940Z,7.20
2019-03-28T17:49:45.022Z,8.53
2019-03-28T17:59:49.981Z,8.80
2019-03-28T18:09:55.063Z,8.50
2019-03-28T18:20:00.368Z,8.97
2019-03-28T18:30:05.934Z,11.13
2019-03-28T18:40:11.012Z,11.97
2019-03-28T18:50:16.030Z,11.63
2019-03-28T19:00:21.039Z,12.07
2019-03-28T19:10:26.057Z,11.97
2019-03-28T19:20:33.212Z,18.63
2019-03-28T19:30:38.651Z,12.73
2019-03-28T19:40:43.765Z,11.73
2019-03-28T19:50:49.708Z,10.63
2019-03-28T20:00:54.726Z,11.50
2019-03-28T20:10:59.649Z,11.83
2019-03-28T20:21:05.508Z,12.73
2019-03-28T20:31:10.536Z,12.37
2019-03-28T20:41:16.947Z,12.80
2019-03-28T20:51:24.483Z,11.97
2019-03-28T21:01:28.630Z,14.50
2019-03-28T21:11:33.602Z,14.40
2019-03-28T21:21:38.518Z,15.20
2019-03-28T21:31:49.737Z,14.07
2019-03-28T21:41:50.172Z,15.17
2019-03-28T21:51:56.747Z,15.70
2019-03-28T22:02:01.874Z,15.67
2019-03-28T22:12:06.826Z,16.00
2019-03-28T22:22:11.767Z,15.83
2019-03-28T22:32:16.897Z,15.73
2019-03-28T22:42:21.782Z,15.40
2019-03-28T22:52:26.779Z,16.67
2019-03-28T23:02:31.933Z,15.30
2019-03-28T23:12:36.959Z,16.40
2019-03-28T23:22:41.889Z,15.40
2019-03-28T23:32:46.789Z,14.87
2019-03-28T23:42:51.881Z,15.77
2019-03-28T23:52:56.849Z,15.33
